sensor_id;sensor_type;location;lat;lon;timestamp;P1;durP1;ratioP1;P2;durP2;ratioP2
38783;SDS011;24531;45.502;12.238;2023-09-19T00:00:23;21.15;;;10.45;;
38783;SDS011;24531;45.502;12.238;2023-09-19T00:02:56;28.08;;;11.07;;
38783;SDS011;24531;45.502;12.238;2023-09-19T00:05:27;20.50;;;11.25;;
38783;SDS011;24531;45.502;12.238;2023-09-19T00:07:54;18.85;;;10.23;;
38783;SDS011;24531;45.502;12.238;2023-09-19T00:37:40;17.48;;;10.07;;
38783;SDS011;24531;45.502;12.238;2023-09-19T00:40:15;22.25;;;10.18;;
38783;SDS011;24531;45.502;12.238;2023-09-19T00:42:42;14.48;;;10.05;;
38783;SDS011;24531;45.502;12.238;2023-09-19T00:45:31;14.95;;;9.35;;
38783;SDS011;24531;45.502;12.238;2023-09-19T00:47:57;18.10;;;9.57;;
38783;SDS011;24531;45.502;12.238;2023-09-19T00:50:29;21.23;;;10.68;;
38783;SDS011;24531;45.502;12.238;2023-09-19T00:53:17;17.40;;;9.25;;
38783;SDS011;24531;45.502;12.238;2023-09-19T00:55:45;14.55;;;9.30;;
38783;SDS011;24531;45.502;12.238;2023-09-19T00:58:12;13.02;;;8.77;;
38783;SDS011;24531;45.502;12.238;2023-09-19T01:03:29;19.40;;;10.02;;
38783;SDS011;24531;45.502;12.238;2023-09-19T01:05:54;21.83;;;10.80;;
38783;SDS011;24531;45.502;12.238;2023-09-19T01:11:43;16.50;;;8.32;;
38783;SDS011;24531;45.502;12.238;2023-09-19T01:16:51;20.10;;;8.23;;
38783;SDS011;24531;45.502;12.238;2023-09-19T01:22:46;13.73;;;6.20;;
38783;SDS011;24531;45.502;12.238;2023-09-19T01:31:19;15.25;;;6.22;;
38783;SDS011;24531;45.502;12.238;2023-09-19T01:33:58;13.90;;;6.97;;
38783;SDS011;24531;45.502;12.238;2023-09-19T01:36:29;11.98;;;6.35;;
38783;SDS011;24531;45.502;12.238;2023-09-19T01:38:59;21.67;;;7.55;;
38783;SDS011;24531;45.502;12.238;2023-09-19T01:41:39;14.95;;;6.82;;
38783;SDS011;24531;45.502;12.238;2023-09-19T01:44:12;15.32;;;6.43;;
38783;SDS011;24531;45.502;12.238;2023-09-19T01:46:54;10.52;;;6.32;;
38783;SDS011;24531;45.502;12.238;2023-09-19T01:52:03;13.38;;;6.50;;
38783;SDS011;24531;45.502;12.238;2023-09-19T01:54:51;13.63;;;5.78;;
38783;SDS011;24531;45.502;12.238;2023-09-19T01:57:22;15.38;;;7.43;;
38783;SDS011;24531;45.502;12.238;2023-09-19T01:59:58;13.02;;;5.53;;
38783;SDS011;24531;45.502;12.238;2023-09-19T02:02:32;19.23;;;6.85;;
38783;SDS011;24531;45.502;12.238;2023-09-19T02:05:02;12.85;;;6.00;;
38783;SDS011;24531;45.502;12.238;2023-09-19T02:07:29;13.52;;;6.18;;
38783;SDS011;24531;45.502;12.238;2023-09-19T02:09:56;13.38;;;6.43;;
38783;SDS011;24531;45.502;12.238;2023-09-19T02:12:24;16.85;;;6.88;;
38783;SDS011;24531;45.502;12.238;2023-09-19T02:14:49;15.57;;;7.32;;
38783;SDS011;24531;45.502;12.238;2023-09-19T02:17:15;16.92;;;6.70;;
38783;SDS011;24531;45.502;12.238;2023-09-19T02:19:41;12.77;;;6.22;;
38783;SDS011;24531;45.502;12.238;2023-09-19T02:22:06;19.70;;;7.03;;
38783;SDS011;24531;45.502;12.238;2023-09-19T02:24:33;16.45;;;7.05;;
38783;SDS011;24531;45.502;12.238;2023-09-19T02:26:58;19.63;;;6.93;;
38783;SDS011;24531;45.502;12.238;2023-09-19T02:29:28;18.05;;;7.38;;
38783;SDS011;24531;45.502;12.238;2023-09-19T02:31:54;20.35;;;6.93;;
38783;SDS011;24531;45.502;12.238;2023-09-19T02:34:21;20.15;;;7.00;;
38783;SDS011;24531;45.502;12.238;2023-09-19T02:36:47;17.02;;;6.38;;
38783;SDS011;24531;45.502;12.238;2023-09-19T02:39:13;18.80;;;7.35;;
38783;SDS011;24531;45.502;12.238;2023-09-19T02:41:38;17.92;;;7.63;;
38783;SDS011;24531;45.502;12.238;2023-09-19T02:44:04;13.77;;;7.45;;
38783;SDS011;24531;45.502;12.238;2023-09-19T02:46:33;17.80;;;7.78;;
38783;SDS011;24531;45.502;12.238;2023-09-19T02:48:59;15.18;;;7.13;;
38783;SDS011;24531;45.502;12.238;2023-09-19T02:51:24;12.65;;;6.72;;
38783;SDS011;24531;45.502;12.238;2023-09-19T02:53:50;14.25;;;7.15;;
38783;SDS011;24531;45.502;12.238;2023-09-19T02:56:19;17.65;;;7.05;;
38783;SDS011;24531;45.502;12.238;2023-09-19T02:58:45;18.77;;;7.55;;
38783;SDS011;24531;45.502;12.238;2023-09-19T03:01:13;12.80;;;6.22;;
38783;SDS011;24531;45.502;12.238;2023-09-19T03:03:43;13.70;;;7.03;;
38783;SDS011;24531;45.502;12.238;2023-09-19T03:09:03;18.65;;;7.28;;
38783;SDS011;24531;45.502;12.238;2023-09-19T03:11:36;13.13;;;6.80;;
38783;SDS011;24531;45.502;12.238;2023-09-19T03:14:02;16.20;;;8.10;;
38783;SDS011;24531;45.502;12.238;2023-09-19T03:16:29;19.42;;;7.35;;
38783;SDS011;24531;45.502;12.238;2023-09-19T03:18:54;10.43;;;6.72;;
38783;SDS011;24531;45.502;12.238;2023-09-19T03:21:20;15.98;;;7.60;;
38783;SDS011;24531;45.502;12.238;2023-09-19T03:23:46;15.98;;;7.85;;
38783;SDS011;24531;45.502;12.238;2023-09-19T03:26:12;17.15;;;8.70;;
38783;SDS011;24531;45.502;12.238;2023-09-19T03:28:39;18.30;;;8.50;;
38783;SDS011;24531;45.502;12.238;2023-09-19T03:31:06;19.13;;;7.57;;
38783;SDS011;24531;45.502;12.238;2023-09-19T03:33:32;14.27;;;8.05;;
38783;SDS011;24531;45.502;12.238;2023-09-19T03:35:58;16.35;;;8.07;;
38783;SDS011;24531;45.502;12.238;2023-09-19T03:38:26;18.70;;;7.60;;
38783;SDS011;24531;45.502;12.238;2023-09-19T03:40:52;15.20;;;7.55;;
38783;SDS011;24531;45.502;12.238;2023-09-19T03:43:18;13.48;;;7.38;;
38783;SDS011;24531;45.502;12.238;2023-09-19T03:45:44;17.73;;;7.40;;
38783;SDS011;24531;45.502;12.238;2023-09-19T03:48:11;20.77;;;7.18;;
38783;SDS011;24531;45.502;12.238;2023-09-19T03:50:38;17.92;;;7.88;;
38783;SDS011;24531;45.502;12.238;2023-09-19T03:53:04;19.70;;;7.80;;
38783;SDS011;24531;45.502;12.238;2023-09-19T03:55:32;20.58;;;8.00;;
38783;SDS011;24531;45.502;12.238;2023-09-19T03:58:00;19.95;;;8.55;;
38783;SDS011;24531;45.502;12.238;2023-09-19T04:00:26;18.15;;;7.45;;
38783;SDS011;24531;45.502;12.238;2023-09-19T04:02:52;16.08;;;6.95;;
38783;SDS011;24531;45.502;12.238;2023-09-19T04:05:18;18.75;;;7.38;;
38783;SDS011;24531;45.502;12.238;2023-09-19T04:07:44;14.65;;;7.18;;
38783;SDS011;24531;45.502;12.238;2023-09-19T04:10:09;13.82;;;6.80;;
38783;SDS011;24531;45.502;12.238;2023-09-19T04:12:39;15.00;;;7.47;;
38783;SDS011;24531;45.502;12.238;2023-09-19T04:15:05;11.88;;;6.50;;
38783;SDS011;24531;45.502;12.238;2023-09-19T04:17:31;15.55;;;6.95;;
38783;SDS011;24531;45.502;12.238;2023-09-19T04:19:58;16.40;;;7.20;;
38783;SDS011;24531;45.502;12.238;2023-09-19T04:22:24;10.77;;;6.05;;
38783;SDS011;24531;45.502;12.238;2023-09-19T04:24:50;11.27;;;6.10;;
38783;SDS011;24531;45.502;12.238;2023-09-19T04:27:16;12.60;;;6.47;;
38783;SDS011;24531;45.502;12.238;2023-09-19T04:29:41;13.25;;;5.95;;
38783;SDS011;24531;45.502;12.238;2023-09-19T04:32:07;13.38;;;6.85;;
38783;SDS011;24531;45.502;12.238;2023-09-19T04:34:34;15.05;;;7.43;;
38783;SDS011;24531;45.502;12.238;2023-09-19T04:37:00;13.40;;;6.88;;
38783;SDS011;24531;45.502;12.238;2023-09-19T04:39:26;14.13;;;7.65;;
38783;SDS011;24531;45.502;12.238;2023-09-19T04:41:53;18.55;;;7.15;;
38783;SDS011;24531;45.502;12.238;2023-09-19T04:44:19;13.88;;;6.65;;
38783;SDS011;24531;45.502;12.238;2023-09-19T04:46:46;20.23;;;8.13;;
38783;SDS011;24531;45.502;12.238;2023-09-19T04:49:12;18.02;;;7.93;;
38783;SDS011;24531;45.502;12.238;2023-09-19T04:51:37;15.00;;;7.72;;
38783;SDS011;24531;45.502;12.238;2023-09-19T04:54:04;15.93;;;7.45;;
38783;SDS011;24531;45.502;12.238;2023-09-19T04:56:30;13.52;;;6.90;;
38783;SDS011;24531;45.502;12.238;2023-09-19T04:58:57;16.77;;;7.28;;
38783;SDS011;24531;45.502;12.238;2023-09-19T05:01:26;13.25;;;6.72;;
38783;SDS011;24531;45.502;12.238;2023-09-19T05:03:52;11.27;;;6.25;;
38783;SDS011;24531;45.502;12.238;2023-09-19T05:06:21;15.95;;;7.20;;
38783;SDS011;24531;45.502;12.238;2023-09-19T05:08:47;20.25;;;7.47;;
38783;SDS011;24531;45.502;12.238;2023-09-19T05:11:17;14.88;;;6.97;;
38783;SDS011;24531;45.502;12.238;2023-09-19T05:13:46;17.15;;;7.53;;
38783;SDS011;24531;45.502;12.238;2023-09-19T05:16:12;14.20;;;7.05;;
38783;SDS011;24531;45.502;12.238;2023-09-19T05:18:38;15.13;;;6.88;;
38783;SDS011;24531;45.502;12.238;2023-09-19T05:21:03;15.90;;;7.82;;
38783;SDS011;24531;45.502;12.238;2023-09-19T05:23:29;15.63;;;7.85;;
38783;SDS011;24531;45.502;12.238;2023-09-19T05:25:56;16.45;;;8.98;;
38783;SDS011;24531;45.502;12.238;2023-09-19T05:28:24;15.18;;;7.63;;
38783;SDS011;24531;45.502;12.238;2023-09-19T05:30:51;19.08;;;7.93;;
38783;SDS011;24531;45.502;12.238;2023-09-19T05:33:18;19.38;;;8.68;;
38783;SDS011;24531;45.502;12.238;2023-09-19T05:35:44;20.38;;;9.02;;
38783;SDS011;24531;45.502;12.238;2023-09-19T05:38:12;21.70;;;9.13;;
38783;SDS011;24531;45.502;12.238;2023-09-19T05:40:38;23.15;;;10.02;;
38783;SDS011;24531;45.502;12.238;2023-09-19T05:43:07;17.20;;;8.40;;
38783;SDS011;24531;45.502;12.238;2023-09-19T05:45:36;19.08;;;8.82;;
38783;SDS011;24531;45.502;12.238;2023-09-19T05:48:12;22.17;;;10.13;;
38783;SDS011;24531;45.502;12.238;2023-09-19T05:50:38;15.85;;;8.35;;
38783;SDS011;24531;45.502;12.238;2023-09-19T05:53:05;21.83;;;10.40;;
38783;SDS011;24531;45.502;12.238;2023-09-19T05:55:31;18.83;;;9.40;;
38783;SDS011;24531;45.502;12.238;2023-09-19T05:57:57;15.35;;;9.70;;
38783;SDS011;24531;45.502;12.238;2023-09-19T06:00:23;18.65;;;9.75;;
38783;SDS011;24531;45.502;12.238;2023-09-19T06:02:56;18.52;;;9.63;;
38783;SDS011;24531;45.502;12.238;2023-09-19T06:05:22;17.85;;;10.18;;
38783;SDS011;24531;45.502;12.238;2023-09-19T06:07:52;20.35;;;10.40;;
38783;SDS011;24531;45.502;12.238;2023-09-19T06:10:18;18.20;;;11.15;;
38783;SDS011;24531;45.502;12.238;2023-09-19T06:12:46;20.77;;;9.98;;
38783;SDS011;24531;45.502;12.238;2023-09-19T06:15:12;13.60;;;9.00;;
38783;SDS011;24531;45.502;12.238;2023-09-19T06:17:46;22.00;;;10.87;;
38783;SDS011;24531;45.502;12.238;2023-09-19T06:20:13;20.38;;;10.85;;
38783;SDS011;24531;45.502;12.238;2023-09-19T06:22:40;18.88;;;11.27;;
38783;SDS011;24531;45.502;12.238;2023-09-19T06:25:07;18.15;;;12.00;;
38783;SDS011;24531;45.502;12.238;2023-09-19T06:27:36;22.27;;;11.77;;
38783;SDS011;24531;45.502;12.238;2023-09-19T06:30:02;19.55;;;10.18;;
38783;SDS011;24531;45.502;12.238;2023-09-19T06:32:28;22.90;;;10.70;;
38783;SDS011;24531;45.502;12.238;2023-09-19T06:34:53;19.77;;;10.35;;
38783;SDS011;24531;45.502;12.238;2023-09-19T06:37:20;20.70;;;11.63;;
38783;SDS011;24531;45.502;12.238;2023-09-19T06:39:47;23.35;;;10.77;;
38783;SDS011;24531;45.502;12.238;2023-09-19T06:42:15;18.00;;;10.20;;
38783;SDS011;24531;45.502;12.238;2023-09-19T06:44:42;24.30;;;11.93;;
38783;SDS011;24531;45.502;12.238;2023-09-19T06:47:08;21.13;;;10.77;;
38783;SDS011;24531;45.502;12.238;2023-09-19T06:49:35;17.60;;;11.15;;
38783;SDS011;24531;45.502;12.238;2023-09-19T06:52:00;23.33;;;11.15;;
38783;SDS011;24531;45.502;12.238;2023-09-19T06:54:27;28.35;;;12.05;;
38783;SDS011;24531;45.502;12.238;2023-09-19T06:56:56;24.95;;;11.05;;
38783;SDS011;24531;45.502;12.238;2023-09-19T06:59:23;25.90;;;11.93;;
38783;SDS011;24531;45.502;12.238;2023-09-19T07:01:49;18.17;;;11.52;;
38783;SDS011;24531;45.502;12.238;2023-09-19T07:04:16;21.25;;;11.75;;
38783;SDS011;24531;45.502;12.238;2023-09-19T07:06:41;22.88;;;10.93;;
38783;SDS011;24531;45.502;12.238;2023-09-19T07:09:07;18.85;;;10.23;;
38783;SDS011;24531;45.502;12.238;2023-09-19T07:11:33;18.83;;;11.55;;
38783;SDS011;24531;45.502;12.238;2023-09-19T07:13:59;30.20;;;10.80;;
38783;SDS011;24531;45.502;12.238;2023-09-19T07:16:28;18.13;;;10.50;;
38783;SDS011;24531;45.502;12.238;2023-09-19T07:18:54;38.85;;;12.30;;
38783;SDS011;24531;45.502;12.238;2023-09-19T07:21:21;59.42;;;13.90;;
38783;SDS011;24531;45.502;12.238;2023-09-19T07:23:47;24.42;;;11.70;;
38783;SDS011;24531;45.502;12.238;2023-09-19T07:26:14;24.33;;;10.93;;
38783;SDS011;24531;45.502;12.238;2023-09-19T07:28:40;17.58;;;10.75;;
38783;SDS011;24531;45.502;12.238;2023-09-19T07:31:06;19.48;;;10.40;;
38783;SDS011;24531;45.502;12.238;2023-09-19T07:33:35;18.05;;;10.25;;
38783;SDS011;24531;45.502;12.238;2023-09-19T07:36:01;15.93;;;10.18;;
38783;SDS011;24531;45.502;12.238;2023-09-19T07:38:27;19.33;;;8.65;;
38783;SDS011;24531;45.502;12.238;2023-09-19T07:40:53;18.27;;;8.90;;
38783;SDS011;24531;45.502;12.238;2023-09-19T07:43:24;21.55;;;9.77;;
38783;SDS011;24531;45.502;12.238;2023-09-19T07:45:50;16.67;;;9.32;;
38783;SDS011;24531;45.502;12.238;2023-09-19T07:48:16;22.05;;;10.30;;
38783;SDS011;24531;45.502;12.238;2023-09-19T07:50:41;23.92;;;10.57;;
38783;SDS011;24531;45.502;12.238;2023-09-19T07:53:08;18.60;;;7.70;;
38783;SDS011;24531;45.502;12.238;2023-09-19T07:55:34;11.15;;;8.05;;
38783;SDS011;24531;45.502;12.238;2023-09-19T07:58:00;12.55;;;7.47;;
38783;SDS011;24531;45.502;12.238;2023-09-19T08:00:25;13.15;;;7.32;;
38783;SDS011;24531;45.502;12.238;2023-09-19T08:02:51;16.70;;;7.28;;
38783;SDS011;24531;45.502;12.238;2023-09-19T08:05:17;14.27;;;5.95;;
38783;SDS011;24531;45.502;12.238;2023-09-19T08:07:45;18.02;;;6.35;;
38783;SDS011;24531;45.502;12.238;2023-09-19T08:10:22;11.10;;;6.25;;
38783;SDS011;24531;45.502;12.238;2023-09-19T08:12:52;13.50;;;6.28;;
38783;SDS011;24531;45.502;12.238;2023-09-19T08:15:23;17.38;;;7.30;;
38783;SDS011;24531;45.502;12.238;2023-09-19T08:17:48;12.52;;;6.70;;
38783;SDS011;24531;45.502;12.238;2023-09-19T08:20:15;15.38;;;6.35;;
38783;SDS011;24531;45.502;12.238;2023-09-19T08:22:47;12.27;;;5.32;;
38783;SDS011;24531;45.502;12.238;2023-09-19T08:25:14;9.73;;;6.97;;
38783;SDS011;24531;45.502;12.238;2023-09-19T08:27:46;10.85;;;7.32;;
38783;SDS011;24531;45.502;12.238;2023-09-19T08:30:15;9.48;;;6.40;;
38783;SDS011;24531;45.502;12.238;2023-09-19T08:32:43;14.15;;;8.38;;
38783;SDS011;24531;45.502;12.238;2023-09-19T08:35:09;22.42;;;8.20;;
38783;SDS011;24531;45.502;12.238;2023-09-19T08:37:35;15.50;;;8.07;;
38783;SDS011;24531;45.502;12.238;2023-09-19T08:40:01;19.77;;;7.68;;
38783;SDS011;24531;45.502;12.238;2023-09-19T08:42:27;17.02;;;7.63;;
38783;SDS011;24531;45.502;12.238;2023-09-19T08:44:53;13.18;;;6.50;;
38783;SDS011;24531;45.502;12.238;2023-09-19T08:47:23;16.88;;;7.55;;
38783;SDS011;24531;45.502;12.238;2023-09-19T08:50:10;13.05;;;7.07;;
38783;SDS011;24531;45.502;12.238;2023-09-19T08:52:44;53.45;;;10.35;;
38783;SDS011;24531;45.502;12.238;2023-09-19T08:55:13;16.25;;;7.93;;
38783;SDS011;24531;45.502;12.238;2023-09-19T08:57:46;21.65;;;11.27;;
38783;SDS011;24531;45.502;12.238;2023-09-19T09:00:14;13.25;;;6.80;;
38783;SDS011;24531;45.502;12.238;2023-09-19T09:02:43;14.80;;;6.40;;
38783;SDS011;24531;45.502;12.238;2023-09-19T09:05:09;17.30;;;6.32;;
38783;SDS011;24531;45.502;12.238;2023-09-19T09:07:38;13.98;;;6.38;;
38783;SDS011;24531;45.502;12.238;2023-09-19T09:10:05;13.23;;;5.93;;
38783;SDS011;24531;45.502;12.238;2023-09-19T09:12:32;12.13;;;6.18;;
38783;SDS011;24531;45.502;12.238;2023-09-19T09:15:01;10.77;;;5.53;;
38783;SDS011;24531;45.502;12.238;2023-09-19T09:17:28;15.88;;;5.53;;
38783;SDS011;24531;45.502;12.238;2023-09-19T09:19:55;10.30;;;5.50;;
38783;SDS011;24531;45.502;12.238;2023-09-19T09:22:21;10.30;;;5.32;;
38783;SDS011;24531;45.502;12.238;2023-09-19T09:24:55;13.13;;;5.90;;
38783;SDS011;24531;45.502;12.238;2023-09-19T09:27:26;9.35;;;5.47;;
38783;SDS011;24531;45.502;12.238;2023-09-19T09:29:52;11.77;;;5.25;;
38783;SDS011;24531;45.502;12.238;2023-09-19T09:32:28;10.52;;;6.05;;
38783;SDS011;24531;45.502;12.238;2023-09-19T09:34:57;7.15;;;4.82;;
38783;SDS011;24531;45.502;12.238;2023-09-19T09:37:24;11.57;;;5.00;;
38783;SDS011;24531;45.502;12.238;2023-09-19T09:42:37;8.43;;;4.28;;
38783;SDS011;24531;45.502;12.238;2023-09-19T09:47:57;18.42;;;4.82;;
38783;SDS011;24531;45.502;12.238;2023-09-19T09:50:32;8.68;;;5.13;;
38783;SDS011;24531;45.502;12.238;2023-09-19T09:55:57;10.20;;;5.10;;
38783;SDS011;24531;45.502;12.238;2023-09-19T09:58:34;9.77;;;4.07;;
38783;SDS011;24531;45.502;12.238;2023-09-19T10:01:02;8.32;;;4.65;;
38783;SDS011;24531;45.502;12.238;2023-09-19T10:03:37;33.90;;;6.63;;
38783;SDS011;24531;45.502;12.238;2023-09-19T10:06:13;11.60;;;4.47;;
38783;SDS011;24531;45.502;12.238;2023-09-19T10:09:03;10.30;;;5.75;;
38783;SDS011;24531;45.502;12.238;2023-09-19T10:11:35;11.95;;;5.45;;
38783;SDS011;24531;45.502;12.238;2023-09-19T10:14:12;9.38;;;4.18;;
38783;SDS011;24531;45.502;12.238;2023-09-19T10:16:46;10.65;;;5.10;;
38783;SDS011;24531;45.502;12.238;2023-09-19T10:21:40;7.40;;;5.10;;
38783;SDS011;24531;45.502;12.238;2023-09-19T10:24:08;9.95;;;4.57;;
38783;SDS011;24531;45.502;12.238;2023-09-19T10:26:36;5.25;;;3.67;;
38783;SDS011;24531;45.502;12.238;2023-09-19T10:29:02;13.00;;;4.82;;
38783;SDS011;24531;45.502;12.238;2023-09-19T10:31:32;11.20;;;4.68;;
38783;SDS011;24531;45.502;12.238;2023-09-19T10:34:00;10.55;;;5.32;;
38783;SDS011;24531;45.502;12.238;2023-09-19T10:36:29;12.07;;;5.63;;
38783;SDS011;24531;45.502;12.238;2023-09-19T10:39:01;7.25;;;4.38;;
38783;SDS011;24531;45.502;12.238;2023-09-19T10:41:32;16.27;;;6.78;;
38783;SDS011;24531;45.502;12.238;2023-09-19T10:44:02;12.35;;;5.53;;
38783;SDS011;24531;45.502;12.238;2023-09-19T10:46:32;16.52;;;6.65;;
38783;SDS011;24531;45.502;12.238;2023-09-19T10:48:59;10.05;;;5.18;;
38783;SDS011;24531;45.502;12.238;2023-09-19T10:51:25;17.17;;;5.60;;
38783;SDS011;24531;45.502;12.238;2023-09-19T10:53:59;13.43;;;5.93;;
38783;SDS011;24531;45.502;12.238;2023-09-19T10:56:33;14.85;;;5.45;;
38783;SDS011;24531;45.502;12.238;2023-09-19T10:59:13;14.23;;;5.63;;
38783;SDS011;24531;45.502;12.238;2023-09-19T11:01:53;9.18;;;5.25;;
38783;SDS011;24531;45.502;12.238;2023-09-19T11:07:08;10.68;;;5.65;;
38783;SDS011;24531;45.502;12.238;2023-09-19T11:15:11;10.88;;;4.43;;
38783;SDS011;24531;45.502;12.238;2023-09-19T11:27:17;10.93;;;3.88;;
38783;SDS011;24531;45.502;12.238;2023-09-19T11:41:45;15.30;;;4.65;;
38783;SDS011;24531;45.502;12.238;2023-09-19T11:56:25;13.23;;;5.25;;
38783;SDS011;24531;45.502;12.238;2023-09-19T12:02:37;12.25;;;3.88;;
38783;SDS011;24531;45.502;12.238;2023-09-19T12:11:17;10.80;;;3.85;;
38783;SDS011;24531;45.502;12.238;2023-09-19T12:16:58;14.45;;;4.00;;
38783;SDS011;24531;45.502;12.238;2023-09-19T12:19:26;8.60;;;3.60;;
38783;SDS011;24531;45.502;12.238;2023-09-19T12:21:58;8.73;;;5.63;;
38783;SDS011;24531;45.502;12.238;2023-09-19T12:25:06;8.05;;;4.32;;
38783;SDS011;24531;45.502;12.238;2023-09-19T12:35:53;11.50;;;4.95;;
38783;SDS011;24531;45.502;12.238;2023-09-19T12:38:25;9.38;;;3.80;;
38783;SDS011;24531;45.502;12.238;2023-09-19T12:40:58;7.28;;;2.95;;
38783;SDS011;24531;45.502;12.238;2023-09-19T12:43:36;9.52;;;3.58;;
38783;SDS011;24531;45.502;12.238;2023-09-19T12:46:08;13.98;;;3.25;;
38783;SDS011;24531;45.502;12.238;2023-09-19T12:48:33;6.35;;;3.53;;
38783;SDS011;24531;45.502;12.238;2023-09-19T13:04:52;3.30;;;2.20;;
38783;SDS011;24531;45.502;12.238;2023-09-19T13:11:18;7.85;;;2.92;;
38783;SDS011;24531;45.502;12.238;2023-09-19T13:27:32;9.13;;;3.80;;
38783;SDS011;24531;45.502;12.238;2023-09-19T13:30:07;9.20;;;3.42;;
38783;SDS011;24531;45.502;12.238;2023-09-19T13:32:35;9.48;;;4.32;;
38783;SDS011;24531;45.502;12.238;2023-09-19T13:37:51;10.45;;;3.72;;
38783;SDS011;24531;45.502;12.238;2023-09-19T13:40:26;6.72;;;3.67;;
38783;SDS011;24531;45.502;12.238;2023-09-19T13:42:55;13.27;;;4.15;;
38783;SDS011;24531;45.502;12.238;2023-09-19T13:45:21;10.45;;;3.53;;
38783;SDS011;24531;45.502;12.238;2023-09-19T13:47:58;7.45;;;3.85;;
38783;SDS011;24531;45.502;12.238;2023-09-19T13:53:31;11.63;;;3.20;;
38783;SDS011;24531;45.502;12.238;2023-09-19T14:04:29;11.45;;;3.35;;
38783;SDS011;24531;45.502;12.238;2023-09-19T14:06:59;10.85;;;3.92;;
38783;SDS011;24531;45.502;12.238;2023-09-19T14:12:23;11.60;;;4.20;;
38783;SDS011;24531;45.502;12.238;2023-09-19T14:17:59;7.82;;;3.45;;
38783;SDS011;24531;45.502;12.238;2023-09-19T14:20:37;9.60;;;3.85;;
38783;SDS011;24531;45.502;12.238;2023-09-19T14:23:06;5.25;;;3.03;;
38783;SDS011;24531;45.502;12.238;2023-09-19T14:28:42;9.15;;;3.03;;
38783;SDS011;24531;45.502;12.238;2023-09-19T14:34:36;8.07;;;3.88;;
38783;SDS011;24531;45.502;12.238;2023-09-19T14:50:53;13.23;;;4.03;;
38783;SDS011;24531;45.502;12.238;2023-09-19T15:07:24;9.10;;;3.10;;
38783;SDS011;24531;45.502;12.238;2023-09-19T15:24:31;18.50;;;3.90;;
38783;SDS011;24531;45.502;12.238;2023-09-19T15:27:06;16.77;;;4.22;;
38783;SDS011;24531;45.502;12.238;2023-09-19T15:29:44;15.95;;;4.18;;
38783;SDS011;24531;45.502;12.238;2023-09-19T15:32:18;14.23;;;4.60;;
38783;SDS011;24531;45.502;12.238;2023-09-19T15:57:21;2.80;;;1.15;;
38783;SDS011;24531;45.502;12.238;2023-09-19T17:36:39;3.70;;;2.00;;
38783;SDS011;24531;45.502;12.238;2023-09-19T19:12:52;8.23;;;2.78;;
38783;SDS011;24531;45.502;12.238;2023-09-19T19:15:17;6.47;;;3.00;;
38783;SDS011;24531;45.502;12.238;2023-09-19T19:21:49;7.18;;;3.10;;
38783;SDS011;24531;45.502;12.238;2023-09-19T19:33:55;11.00;;;4.45;;
38783;SDS011;24531;45.502;12.238;2023-09-19T19:36:40;7.95;;;3.88;;
38783;SDS011;24531;45.502;12.238;2023-09-19T20:33:59;8.25;;;4.13;;
38783;SDS011;24531;45.502;12.238;2023-09-19T21:22:31;4.80;;;3.28;;
38783;SDS011;24531;45.502;12.238;2023-09-19T22:17:49;8.20;;;4.60;;
38783;SDS011;24531;45.502;12.238;2023-09-19T22:52:15;6.53;;;2.90;;
38783;SDS011;24531;45.502;12.238;2023-09-19T23:25:55;6.68;;;2.60;;
38783;SDS011;24531;45.502;12.238;2023-09-19T23:32:31;6.10;;;2.60;;
38783;SDS011;24531;45.502;12.238;2023-09-19T23:39:05;5.60;;;2.42;;
